createdAt,value
2018-09-02T00:01:50.761Z,6.07
2018-09-02T00:04:19.378Z,5.33
2018-09-02T00:06:47.996Z,5.57
2018-09-02T00:09:16.632Z,5.57
2018-09-02T00:11:45.269Z,6.00
2018-09-02T00:14:13.857Z,6.50
2018-09-02T00:16:42.900Z,6.73
2018-09-02T00:19:11.614Z,6.83
2018-09-02T00:21:40.293Z,7.13
2018-09-02T00:24:08.917Z,8.07
2018-09-02T00:26:37.522Z,7.63
2018-09-02T00:29:06.152Z,8.27
2018-09-02T00:31:35.566Z,7.90
2018-09-02T00:34:05.325Z,7.73
2018-09-02T00:36:33.968Z,7.30
2018-09-02T00:39:02.735Z,8.30
2018-09-02T00:41:31.481Z,7.33
2018-09-02T00:44:00.339Z,7.43
2018-09-02T00:46:29.095Z,9.37
2018-09-02T00:48:58.055Z,8.43
2018-09-02T00:51:26.667Z,7.80
2018-09-02T00:53:55.422Z,8.43
2018-09-02T00:56:24.707Z,8.17
2018-09-02T00:58:53.359Z,8.37
2018-09-02T01:01:22.211Z,8.77
2018-09-02T01:03:50.885Z,8.33
2018-09-02T01:06:19.687Z,7.90
2018-09-02T01:08:48.504Z,8.83
2018-09-02T01:11:17.223Z,8.50
2018-09-02T01:13:45.838Z,8.03
2018-09-02T01:16:14.535Z,8.80
2018-09-02T01:18:43.201Z,8.67
2018-09-02T01:21:11.888Z,8.23
2018-09-02T01:23:40.775Z,9.00
2018-09-02T01:26:09.375Z,9.17
2018-09-02T01:28:38.049Z,9.53
2018-09-02T01:31:07.118Z,8.87
2018-09-02T01:33:35.810Z,9.23
2018-09-02T01:36:04.678Z,10.03
2018-09-02T01:38:33.384Z,9.17
2018-09-02T01:41:02.935Z,9.50
2018-09-02T01:43:31.669Z,10.00
2018-09-02T01:46:00.291Z,9.17
2018-09-02T01:48:29.276Z,9.53
2018-09-02T01:50:57.909Z,10.13
2018-09-02T01:53:27.045Z,10.93
2018-09-02T01:55:56.049Z,11.00
2018-09-02T01:58:24.690Z,10.53
2018-09-02T02:00:53.546Z,11.17
2018-09-02T02:03:22.947Z,10.60
2018-09-02T02:05:51.834Z,12.30
2018-09-02T02:08:21.628Z,11.53
2018-09-02T02:10:50.255Z,12.63
2018-09-02T02:13:19.301Z,12.77
2018-09-02T02:15:47.960Z,13.13
2018-09-02T02:18:16.807Z,12.70
2018-09-02T02:20:45.449Z,13.67
2018-09-02T02:23:14.235Z,14.43
2018-09-02T02:25:43.035Z,15.27
2018-09-02T02:28:12.042Z,15.43
2018-09-02T02:30:41.041Z,15.00
2018-09-02T02:33:09.866Z,14.90
2018-09-02T02:35:39.735Z,14.83
2018-09-02T02:38:08.822Z,14.83
2018-09-02T02:40:37.598Z,15.47
2018-09-02T02:43:06.695Z,16.87
2018-09-02T02:45:35.409Z,16.27
2018-09-02T02:48:04.135Z,15.97
2018-09-02T02:50:32.947Z,16.10
2018-09-02T02:53:04.492Z,18.27
2018-09-02T02:55:34.523Z,17.23
2018-09-02T02:58:03.635Z,18.10
2018-09-02T03:00:33.382Z,18.63
2018-09-02T03:03:02.111Z,17.10
2018-09-02T03:05:31.115Z,17.63
2018-09-02T03:07:59.806Z,17.13
2018-09-02T03:10:28.421Z,18.10
2018-09-02T03:12:57.161Z,16.27
2018-09-02T03:15:26.061Z,17.37
2018-09-02T03:17:55.169Z,17.63
2018-09-02T03:20:23.920Z,15.97
2018-09-02T03:22:52.617Z,17.27
2018-09-02T03:25:21.326Z,17.23
2018-09-02T03:27:49.961Z,16.33
2018-09-02T03:30:18.607Z,17.57
2018-09-02T03:32:47.187Z,17.97
2018-09-02T03:35:15.866Z,17.17
2018-09-02T03:37:44.509Z,17.73
2018-09-02T03:40:13.158Z,17.50
2018-09-02T03:42:41.814Z,16.23
2018-09-02T03:45:10.636Z,18.07
2018-09-02T03:47:39.363Z,21.17
2018-09-02T03:50:08.052Z,19.80
2018-09-02T03:52:36.812Z,20.63
2018-09-02T03:55:05.645Z,20.43
2018-09-02T03:57:34.318Z,20.53
2018-09-02T04:00:03.031Z,21.63
2018-09-02T04:02:32.067Z,22.63
2018-09-02T04:05:00.819Z,22.90
2018-09-02T04:07:29.557Z,23.50
2018-09-02T04:09:59.028Z,22.37
2018-09-02T04:12:27.962Z,22.83
2018-09-02T04:14:56.700Z,22.43
2018-09-02T04:17:25.415Z,22.53
2018-09-02T04:19:54.031Z,23.77
2018-09-02T04:22:22.795Z,24.10
2018-09-02T04:24:51.722Z,24.47
2018-09-02T04:27:20.364Z,24.00
2018-09-02T04:29:49.116Z,23.47
2018-09-02T04:32:17.757Z,24.30
2018-09-02T04:34:46.458Z,24.13
2018-09-02T04:37:15.431Z,24.57
2018-09-02T04:39:44.025Z,23.70
2018-09-02T04:42:12.629Z,24.60
2018-09-02T04:44:41.403Z,25.50
2018-09-02T04:47:10.083Z,25.03
2018-09-02T04:49:38.716Z,24.43
2018-09-02T04:52:07.530Z,24.67
2018-09-02T04:54:36.164Z,26.10
2018-09-02T04:57:05.060Z,25.43
2018-09-02T04:59:33.643Z,27.40
2018-09-02T05:02:04.992Z,25.43
2018-09-02T05:04:33.653Z,26.13
2018-09-02T05:07:02.351Z,26.60
2018-09-02T05:09:31.241Z,27.23
2018-09-02T05:11:59.895Z,26.53
2018-09-02T05:14:28.503Z,28.57
2018-09-02T05:16:57.120Z,28.00
2018-09-02T05:19:25.772Z,28.47
2018-09-02T05:21:54.516Z,30.07
2018-09-02T05:24:23.168Z,30.33
2018-09-02T05:26:52.020Z,31.20
2018-09-02T05:29:20.672Z,30.53
2018-09-02T05:31:49.264Z,30.00
2018-09-02T05:34:17.898Z,30.00
2018-09-02T05:36:46.664Z,30.77
2018-09-02T05:39:15.440Z,29.83
2018-09-02T05:41:44.137Z,29.80
2018-09-02T05:44:13.017Z,30.03
2018-09-02T05:46:41.671Z,29.63
2018-09-02T05:49:10.284Z,29.37
2018-09-02T05:51:39.162Z,29.20
2018-09-02T05:54:07.783Z,29.30
2018-09-02T05:56:36.444Z,28.00
2018-09-02T05:59:05.236Z,28.63
2018-09-02T06:01:33.893Z,28.07
2018-09-02T06:04:02.494Z,26.73
2018-09-02T06:06:31.205Z,25.53
2018-09-02T06:09:00.003Z,25.93
2018-09-02T06:11:28.689Z,25.30
2018-09-02T06:13:57.405Z,24.60
2018-09-02T06:16:26.057Z,26.67
2018-09-02T06:18:54.674Z,23.57
2018-09-02T06:21:23.261Z,23.80
2018-09-02T06:23:52.040Z,24.30
2018-09-02T06:26:20.612Z,24.50
2018-09-02T06:28:49.225Z,23.57
2018-09-02T06:31:18.072Z,23.17
2018-09-02T06:33:46.689Z,22.37
2018-09-02T06:36:15.315Z,22.73
2018-09-02T06:38:44.150Z,21.07
2018-09-02T06:41:12.999Z,20.77
2018-09-02T06:43:41.941Z,20.27
2018-09-02T06:46:10.832Z,20.87
2018-09-02T06:48:39.644Z,21.50
2018-09-02T06:51:08.331Z,20.60
2018-09-02T06:53:37.005Z,20.80
2018-09-02T06:56:05.641Z,20.30
2018-09-02T06:58:34.449Z,19.73
2018-09-02T07:01:03.143Z,21.20
2018-09-02T07:03:31.785Z,21.27
2018-09-02T07:06:00.426Z,19.77
2018-09-02T07:08:29.052Z,20.33
2018-09-02T07:10:57.787Z,20.43
2018-09-02T07:13:26.445Z,18.97
2018-09-02T07:15:55.115Z,18.70
2018-09-02T07:18:23.788Z,18.77
2018-09-02T07:20:52.584Z,16.27
2018-09-02T07:23:21.598Z,16.03
2018-09-02T07:25:50.293Z,16.00
2018-09-02T07:28:19.439Z,16.03
2018-09-02T07:30:48.143Z,16.73
2018-09-02T07:33:17.137Z,15.80
2018-09-02T07:35:45.810Z,15.20
2018-09-02T07:38:14.513Z,14.67
2018-09-02T07:40:43.310Z,14.00
2018-09-02T07:43:11.958Z,13.90
2018-09-02T07:45:40.614Z,13.77
2018-09-02T07:48:09.323Z,13.13
2018-09-02T07:50:37.949Z,12.27
2018-09-02T07:53:06.591Z,11.87
2018-09-02T07:55:35.240Z,12.13
2018-09-02T07:58:04.092Z,11.60
2018-09-02T08:00:32.741Z,11.10
2018-09-02T08:03:01.640Z,11.43
2018-09-02T08:05:30.325Z,10.87
2018-09-02T08:07:58.974Z,11.33
2018-09-02T08:10:27.640Z,10.67
2018-09-02T08:12:56.420Z,9.80
2018-09-02T08:15:25.219Z,9.33
2018-09-02T08:17:53.817Z,9.07
2018-09-02T08:20:22.547Z,8.57
2018-09-02T08:22:51.274Z,8.90
2018-09-02T08:25:19.932Z,8.40
2018-09-02T08:27:50.044Z,7.57
2018-09-02T08:30:18.683Z,7.50
2018-09-02T08:32:47.834Z,7.07
2018-09-02T08:35:16.507Z,7.23
2018-09-02T08:37:45.420Z,9.17
2018-09-02T08:40:14.907Z,6.93
2018-09-02T08:42:43.551Z,6.83
2018-09-02T08:45:12.386Z,7.00
2018-09-02T08:47:41.031Z,7.27
2018-09-02T08:50:09.727Z,7.33
2018-09-02T08:52:38.411Z,6.70
2018-09-02T08:55:07.078Z,6.27
2018-09-02T08:57:35.759Z,6.33
2018-09-02T09:00:04.578Z,5.17
2018-09-02T09:02:33.243Z,5.23
2018-09-02T09:05:01.883Z,5.13
2018-09-02T09:07:31.846Z,4.93
2018-09-02T09:10:00.396Z,5.17
2018-09-02T09:12:29.118Z,4.67
2018-09-02T09:14:57.936Z,4.20
2018-09-02T09:17:26.607Z,4.83
2018-09-02T09:19:55.233Z,4.23
2018-09-02T09:22:23.874Z,4.97
2018-09-02T09:24:52.520Z,4.47
2018-09-02T09:27:21.159Z,3.80
2018-09-02T09:29:49.771Z,3.27
2018-09-02T09:32:18.465Z,3.73
2018-09-02T09:34:47.090Z,3.90
2018-09-02T09:37:15.707Z,3.67
2018-09-02T09:39:44.348Z,3.77
2018-09-02T09:42:13.005Z,3.20
2018-09-02T09:44:41.647Z,3.40
2018-09-02T09:47:10.329Z,3.07
2018-09-02T09:49:39.327Z,3.40
2018-09-02T09:52:08.096Z,2.97
2018-09-02T09:54:37.148Z,3.10
2018-09-02T09:57:05.813Z,3.10
2018-09-02T09:59:34.503Z,2.73
2018-09-02T10:02:03.368Z,3.00
2018-09-02T10:04:32.060Z,3.20
2018-09-02T10:07:00.703Z,3.20
2018-09-02T10:09:29.338Z,3.33
2018-09-02T10:11:57.959Z,3.10
2018-09-02T10:14:26.622Z,2.90
2018-09-02T10:16:55.271Z,3.27
2018-09-02T10:19:24.565Z,3.20
2018-09-02T10:21:53.217Z,2.90
2018-09-02T10:24:21.827Z,2.90
2018-09-02T10:26:50.513Z,3.00
2018-09-02T10:29:19.180Z,3.00
2018-09-02T10:31:47.833Z,3.20
2018-09-02T10:34:16.457Z,2.80
2018-09-02T10:36:45.159Z,2.97
2018-09-02T10:39:13.800Z,3.07
2018-09-02T10:41:42.498Z,3.20
2018-09-02T10:44:11.118Z,3.00
2018-09-02T10:46:39.750Z,2.67
2018-09-02T10:49:08.453Z,3.27
2018-09-02T10:51:37.122Z,2.73
2018-09-02T10:54:06.759Z,3.13
2018-09-02T10:56:35.400Z,2.90
2018-09-02T10:59:04.050Z,3.23
2018-09-02T11:01:32.763Z,3.30
2018-09-02T11:04:01.508Z,3.67
2018-09-02T11:06:30.169Z,3.00
2018-09-02T11:08:58.836Z,3.00
2018-09-02T11:11:27.566Z,3.30
2018-09-02T11:13:56.385Z,2.80
2018-09-02T11:16:25.017Z,2.73
2018-09-02T11:18:53.672Z,3.20
2018-09-02T11:21:22.285Z,2.87
2018-09-02T11:23:50.948Z,2.60
2018-09-02T11:26:19.569Z,3.00
2018-09-02T11:28:48.288Z,3.07
2018-09-02T11:31:16.927Z,2.83
2018-09-02T11:33:45.555Z,3.07
2018-09-02T11:36:14.194Z,2.80
2018-09-02T11:38:43.013Z,3.00
2018-09-02T11:41:12.007Z,3.10
2018-09-02T11:43:40.608Z,2.90
2018-09-02T11:46:09.222Z,3.07
2018-09-02T11:48:40.852Z,2.97
2018-09-02T11:51:09.509Z,2.93
2018-09-02T11:53:38.104Z,2.73
2018-09-02T11:56:06.788Z,3.10
2018-09-02T11:58:35.851Z,2.97
2018-09-02T12:01:04.528Z,2.77
2018-09-02T12:03:33.270Z,2.97
2018-09-02T12:06:01.958Z,3.40
2018-09-02T12:08:30.652Z,3.00
2018-09-02T12:10:59.276Z,2.63
2018-09-02T12:13:27.971Z,3.13
2018-09-02T12:15:56.602Z,3.10
2018-09-02T12:18:25.389Z,2.90
2018-09-02T12:20:54.096Z,2.93
2018-09-02T12:23:22.774Z,3.17
2018-09-02T12:25:51.449Z,2.60
2018-09-02T12:28:20.134Z,2.27
2018-09-02T12:30:48.785Z,2.73
2018-09-02T12:33:17.423Z,2.80
2018-09-02T12:35:46.111Z,2.40
2018-09-02T12:38:14.935Z,2.53
2018-09-02T12:40:43.868Z,3.70
2018-09-02T12:43:12.603Z,2.67
2018-09-02T12:45:41.395Z,2.80
2018-09-02T12:48:10.169Z,2.70
2018-09-02T12:50:38.803Z,3.03
2018-09-02T12:53:07.465Z,2.70
2018-09-02T12:55:36.214Z,2.97
2018-09-02T12:58:05.220Z,2.33
2018-09-02T13:00:34.705Z,2.70
2018-09-02T13:03:05.767Z,2.80
2018-09-02T13:05:34.415Z,3.00
2018-09-02T13:08:03.258Z,2.70
2018-09-02T13:10:32.012Z,2.80
2018-09-02T13:13:00.650Z,2.40
2018-09-02T13:15:29.344Z,2.90
2018-09-02T13:17:58.061Z,2.80
2018-09-02T13:20:26.760Z,2.90
2018-09-02T13:22:55.512Z,2.50
2018-09-02T13:25:24.285Z,2.80
2018-09-02T13:27:53.039Z,2.43
2018-09-02T13:30:21.768Z,2.87
2018-09-02T13:32:50.367Z,2.80
2018-09-02T13:35:19.041Z,2.60
2018-09-02T13:37:47.688Z,2.90
2018-09-02T13:40:16.535Z,2.80
2018-09-02T13:42:45.470Z,2.90
2018-09-02T13:45:14.185Z,2.73
2018-09-02T13:47:42.922Z,2.87
2018-09-02T13:50:11.671Z,2.60
2018-09-02T13:52:40.347Z,2.60
2018-09-02T13:55:08.973Z,2.67
2018-09-02T13:57:37.649Z,3.30
2018-09-02T14:00:06.808Z,2.80
2018-09-02T14:02:35.473Z,2.47
2018-09-02T14:05:04.203Z,2.80
2018-09-02T14:07:32.955Z,2.80
2018-09-02T14:10:01.616Z,2.80
2018-09-02T14:12:30.469Z,2.60
2018-09-02T14:14:59.277Z,2.87
2018-09-02T14:17:27.904Z,2.53
2018-09-02T14:19:56.884Z,2.80
2018-09-02T14:22:25.531Z,2.67
2018-09-02T14:24:54.130Z,2.77
2018-09-02T14:27:22.770Z,2.90
2018-09-02T14:29:51.518Z,2.90
2018-09-02T14:32:20.178Z,2.50
2018-09-02T14:34:48.915Z,3.00
2018-09-02T14:37:17.553Z,2.93
2018-09-02T14:39:46.431Z,2.80
2018-09-02T14:42:15.193Z,2.97
2018-09-02T14:44:43.859Z,2.97
2018-09-02T14:47:12.772Z,3.10
2018-09-02T14:49:41.444Z,2.73
2018-09-02T14:52:10.283Z,2.90
2018-09-02T14:54:39.136Z,3.13
2018-09-02T14:57:07.824Z,3.30
2018-09-02T14:59:36.643Z,2.53
2018-09-02T15:02:05.436Z,2.93
2018-09-02T15:04:34.077Z,2.90
2018-09-02T15:07:03.110Z,2.63
2018-09-02T15:09:31.832Z,2.53
2018-09-02T15:12:00.473Z,3.37
2018-09-02T15:14:29.128Z,3.50
2018-09-02T15:16:57.817Z,4.70
2018-09-02T15:19:26.445Z,2.60
2018-09-02T15:21:55.145Z,3.77
2018-09-02T15:24:23.799Z,2.80
2018-09-02T15:26:52.485Z,2.80
2018-09-02T15:29:21.260Z,3.20
2018-09-02T15:31:51.092Z,2.60
2018-09-02T15:34:19.983Z,3.23
2018-09-02T15:36:48.677Z,3.30
2018-09-02T15:39:17.396Z,2.90
2018-09-02T15:41:46.662Z,2.60
2018-09-02T15:44:15.519Z,4.47
2018-09-02T15:46:44.140Z,3.10
2018-09-02T15:49:12.915Z,4.33
2018-09-02T15:51:41.655Z,20.50
2018-09-02T15:54:10.295Z,16.83
2018-09-02T15:56:38.905Z,29.70
2018-09-02T15:59:07.700Z,11.57
2018-09-02T16:01:37.469Z,19.60
2018-09-02T16:04:06.131Z,45.77
2018-09-02T16:06:35.756Z,45.37
2018-09-02T16:09:06.818Z,5.97
2018-09-02T16:11:36.305Z,29.77
2018-09-02T16:14:07.389Z,15.97
2018-09-02T16:16:37.732Z,5.10
2018-09-02T16:19:07.512Z,6.10
2018-09-02T16:21:36.175Z,3.50
2018-09-02T16:24:05.855Z,4.03
2018-09-02T16:26:34.888Z,4.87
2018-09-02T16:29:04.369Z,4.00
2018-09-02T16:31:34.712Z,3.00
2018-09-02T16:34:04.285Z,3.10
2018-09-02T16:36:32.958Z,3.00
2018-09-02T16:39:01.684Z,3.17
2018-09-02T16:41:30.461Z,3.23
2018-09-02T16:43:59.402Z,3.27
2018-09-02T16:46:28.115Z,3.33
2018-09-02T16:48:56.818Z,4.20
2018-09-02T16:51:25.780Z,3.10
2018-09-02T16:53:54.476Z,3.30
2018-09-02T16:56:23.115Z,3.23
2018-09-02T16:58:51.794Z,3.10
2018-09-02T17:01:20.510Z,3.23
2018-09-02T17:04:07.850Z,3.33
2018-09-02T17:06:37.400Z,3.90
2018-09-02T17:09:09.392Z,3.20
2018-09-02T17:11:38.487Z,3.10
2018-09-02T17:14:07.522Z,3.47
2018-09-02T17:16:36.188Z,3.10
2018-09-02T17:19:08.221Z,3.20
2018-09-02T17:21:36.949Z,3.27
2018-09-02T17:24:05.663Z,3.17
2018-09-02T17:26:34.490Z,3.13
2018-09-02T17:29:03.124Z,3.40
2018-09-02T17:31:31.768Z,3.80
2018-09-02T17:34:00.467Z,3.40
2018-09-02T17:36:29.172Z,3.50
2018-09-02T17:38:58.104Z,2.93
2018-09-02T17:41:26.746Z,2.90
2018-09-02T17:43:55.505Z,3.33
2018-09-02T17:46:24.176Z,3.70
2018-09-02T17:48:52.790Z,3.00
2018-09-02T17:51:22.142Z,4.67
2018-09-02T17:53:50.833Z,3.47
2018-09-02T17:56:19.528Z,3.43
2018-09-02T17:58:48.296Z,3.20
2018-09-02T18:01:17.042Z,2.97
2018-09-02T18:03:45.816Z,3.60
2018-09-02T18:06:14.529Z,4.30
2018-09-02T18:08:43.802Z,5.70
2018-09-02T18:11:12.485Z,4.73
2018-09-02T18:13:41.123Z,3.80
2018-09-02T18:16:10.424Z,3.60
2018-09-02T18:18:40.067Z,3.27
2018-09-02T18:21:08.827Z,3.30
2018-09-02T18:23:37.617Z,3.20
2018-09-02T18:26:06.365Z,3.43
2018-09-02T18:28:37.770Z,3.07
2018-09-02T18:31:06.524Z,3.67
2018-09-02T18:33:35.207Z,3.33
2018-09-02T18:36:03.971Z,3.20
2018-09-02T18:38:32.605Z,2.97
2018-09-02T18:41:01.632Z,3.10
2018-09-02T18:43:30.310Z,3.40
2018-09-02T18:45:58.917Z,3.23
2018-09-02T18:48:27.584Z,3.30
2018-09-02T18:50:56.236Z,3.30
2018-09-02T18:53:25.102Z,3.20
2018-09-02T18:55:54.126Z,3.27
2018-09-02T18:58:22.829Z,3.27
2018-09-02T19:00:51.499Z,3.13
2018-09-02T19:03:20.250Z,3.40
2018-09-02T19:05:48.962Z,3.87
2018-09-02T19:08:17.703Z,3.57
2018-09-02T19:10:46.622Z,3.40
2018-09-02T19:13:15.293Z,3.50
2018-09-02T19:15:44.002Z,3.70
2018-09-02T19:18:12.858Z,3.50
2018-09-02T19:20:43.086Z,3.80
2018-09-02T19:23:11.818Z,4.27
2018-09-02T19:25:40.714Z,4.87
2018-09-02T19:28:09.372Z,5.60
2018-09-02T19:30:38.058Z,5.77
2018-09-02T19:33:06.973Z,5.37
2018-09-02T19:35:35.593Z,4.70
2018-09-02T19:38:04.468Z,4.40
2018-09-02T19:40:33.314Z,4.40
2018-09-02T19:43:02.075Z,4.43
2018-09-02T19:45:30.729Z,4.00
2018-09-02T19:47:59.614Z,4.30
2018-09-02T19:50:28.368Z,4.13
2018-09-02T19:52:57.204Z,4.13
2018-09-02T19:55:25.931Z,4.60
2018-09-02T19:57:54.740Z,4.43
2018-09-02T20:00:23.477Z,4.20
2018-09-02T20:02:52.227Z,4.27
2018-09-02T20:05:21.007Z,4.10
2018-09-02T20:07:49.668Z,4.50
2018-09-02T20:10:18.598Z,4.53
2018-09-02T20:12:47.682Z,4.63
2018-09-02T20:15:16.365Z,4.50
2018-09-02T20:17:45.220Z,4.77
2018-09-02T20:20:13.912Z,4.50
2018-09-02T20:22:42.639Z,4.30
2018-09-02T20:25:11.354Z,4.80
2018-09-02T20:27:39.980Z,4.73
2018-09-02T20:30:08.669Z,4.80
2018-09-02T20:32:37.439Z,4.47
2018-09-02T20:35:06.120Z,4.30
2018-09-02T20:37:34.796Z,5.07
2018-09-02T20:40:03.424Z,4.97
2018-09-02T20:42:32.046Z,5.13
2018-09-02T20:45:00.796Z,4.47
2018-09-02T20:47:29.567Z,4.93
2018-09-02T20:49:58.549Z,4.97
2018-09-02T20:52:27.246Z,5.27
2018-09-02T20:54:55.900Z,5.77
2018-09-02T20:57:24.624Z,5.47
2018-09-02T20:59:53.248Z,4.53
2018-09-02T21:02:22.064Z,4.83
2018-09-02T21:04:50.850Z,5.50
2018-09-02T21:07:19.523Z,5.03
2018-09-02T21:09:48.234Z,5.00
2018-09-02T21:12:16.838Z,5.47
2018-09-02T21:14:45.701Z,5.10
2018-09-02T21:17:14.300Z,5.30
2018-09-02T21:19:42.971Z,5.40
2018-09-02T21:22:11.608Z,5.27
2018-09-02T21:24:40.200Z,5.43
2018-09-02T21:27:08.866Z,5.20
2018-09-02T21:29:37.492Z,5.27
2018-09-02T21:32:06.413Z,5.53
2018-09-02T21:34:35.424Z,5.20
2018-09-02T21:37:04.050Z,4.80
2018-09-02T21:39:32.680Z,6.10
2018-09-02T21:42:02.896Z,5.70
2018-09-02T21:44:31.572Z,5.50
2018-09-02T21:47:03.253Z,6.13
2018-09-02T21:49:31.868Z,6.17
2018-09-02T21:52:00.643Z,6.23
2018-09-02T21:54:29.373Z,6.30
2018-09-02T21:56:59.219Z,5.97
2018-09-02T21:59:27.860Z,6.10
2018-09-02T22:01:56.608Z,6.67
2018-09-02T22:04:29.250Z,6.67
2018-09-02T22:06:57.941Z,7.30
2018-09-02T22:09:26.597Z,6.77
2018-09-02T22:11:55.204Z,7.23
2018-09-02T22:14:23.833Z,7.70
2018-09-02T22:16:52.783Z,7.03
2018-09-02T22:19:21.422Z,6.67
2018-09-02T22:21:50.053Z,6.97
2018-09-02T22:24:18.704Z,7.57
2018-09-02T22:26:47.346Z,7.30
2018-09-02T22:29:16.130Z,7.70
2018-09-02T22:31:45.332Z,7.40
2018-09-02T22:34:13.949Z,7.20
2018-09-02T22:36:42.550Z,7.57
2018-09-02T22:39:11.154Z,7.63
2018-09-02T22:41:40.215Z,7.53
2018-09-02T22:44:08.974Z,7.40
2018-09-02T22:46:37.616Z,8.23
2018-09-02T22:49:06.325Z,7.33
2018-09-02T22:51:35.367Z,8.20
2018-09-02T22:54:03.990Z,7.23
2018-09-02T22:56:34.772Z,7.83
2018-09-02T22:59:03.582Z,8.33
2018-09-02T23:01:32.443Z,8.07
2018-09-02T23:04:01.103Z,7.83
2018-09-02T23:06:29.922Z,8.23
2018-09-02T23:09:00.942Z,8.07
2018-09-02T23:11:29.574Z,7.80
2018-09-02T23:13:58.384Z,8.03
2018-09-02T23:16:27.048Z,8.23
2018-09-02T23:18:55.802Z,8.27
2018-09-02T23:21:24.576Z,8.07
2018-09-02T23:23:55.423Z,8.13
2018-09-02T23:26:24.072Z,8.33
2018-09-02T23:28:55.251Z,7.90
2018-09-02T23:31:23.909Z,8.23
2018-09-02T23:33:52.714Z,7.87
2018-09-02T23:36:21.809Z,8.03
2018-09-02T23:38:50.569Z,8.50
2018-09-02T23:41:19.178Z,8.33
2018-09-02T23:43:48.030Z,8.57
2018-09-02T23:46:16.650Z,8.63
2018-09-02T23:48:45.316Z,8.60
2018-09-02T23:51:14.149Z,8.80
2018-09-02T23:53:42.791Z,8.37
2018-09-02T23:56:13.852Z,8.73
2018-09-02T23:58:42.540Z,8.80
